Time;durP1;ratioP1;P1;durP2;ratioP2;P2;SDS_P1;SDS_P2;PMS_P1;PMS_P2;Temp;Humidity;BMP_temperature;BMP_pressure;BME280_temperature;BME280_humidity;BME280_pressure;Samples;Min_cycle;Max_cycle;Signal;HPM_P1;HPM_P2
2022/09/18 00:00:20;;;;;;;10.10;2.00;;;12.00;99.90;;;;;;4943333;29;20206;-82
2022/09/18 00:02:48;;;;;;;6.73;2.03;;;11.90;99.90;;;;;;4951703;28;20209;-82
2022/09/18 00:05:15;;;;;;;5.00;2.20;;;11.90;99.90;;;;;;4938778;28;20202;-82
2022/09/18 00:07:44;;;;;;;6.87;2.50;;;11.80;99.90;;;;;;4950908;28;20569;-82
2022/09/18 00:10:11;;;;;;;4.03;1.90;;;11.90;99.90;;;;;;4944614;29;20198;-82
2022/09/18 00:12:39;;;;;;;7.80;2.90;;;11.90;99.90;;;;;;4964742;28;20193;-82
2022/09/18 00:15:07;;;;;;;8.33;2.70;;;11.90;99.90;;;;;;4945062;29;20197;-82
2022/09/18 00:17:35;;;;;;;5.90;1.87;;;11.90;99.90;;;;;;4946555;28;20218;-81
2022/09/18 00:20:03;;;;;;;5.03;1.90;;;11.90;99.90;;;;;;4943457;28;20205;-81
2022/09/18 00:22:30;;;;;;;4.50;2.37;;;11.90;99.90;;;;;;4943590;29;20205;-81
2022/09/18 00:24:59;;;;;;;6.17;2.43;;;11.90;99.90;;;;;;4944844;29;20213;-82
2022/09/18 00:27:27;;;;;;;7.93;2.97;;;11.90;99.90;;;;;;4945173;29;20236;-81
2022/09/18 00:29:54;;;;;;;7.87;2.47;;;11.90;99.90;;;;;;4943550;29;20206;-82
2022/09/18 00:32:22;;;;;;;3.87;2.53;;;11.90;99.90;;;;;;4945624;29;20208;-82
2022/09/18 00:34:49;;;;;;;5.73;2.40;;;11.90;99.90;;;;;;4949309;29;20238;-82
2022/09/18 00:37:17;;;;;;;5.37;2.00;;;11.90;99.90;;;;;;4943438;28;20206;-82
2022/09/18 00:39:45;;;;;;;5.80;2.30;;;12.00;99.90;;;;;;4947620;29;20198;-81
2022/09/18 00:42:14;;;;;;;5.03;2.53;;;12.00;99.90;;;;;;4945405;29;20204;-82
2022/09/18 00:44:42;;;;;;;7.00;2.27;;;11.80;99.90;;;;;;4943958;29;20198;-81
2022/09/18 00:47:29;;;;;;;9.07;2.50;;;11.80;99.90;;;;;;4947500;29;20229;-82
2022/09/18 00:50:05;;;;;;;5.73;2.43;;;11.80;99.90;;;;;;4943031;28;20672;-82
2022/09/18 00:52:42;;;;;;;5.47;2.37;;;11.80;99.90;;;;;;4938048;29;20201;-82
2022/09/18 00:55:11;;;;;;;6.93;2.60;;;11.90;99.90;;;;;;4942989;28;20197;-81
2022/09/18 00:57:46;;;;;;;5.57;2.10;;;11.90;99.90;;;;;;4949382;28;20218;-83
2022/09/18 01:00:14;;;;;;;6.07;2.37;;;12.00;99.90;;;;;;4951464;28;20193;-82
2022/09/18 01:02:44;;;;;;;6.03;2.80;;;12.00;99.90;;;;;;4946889;29;20210;-82
2022/09/18 01:05:14;;;;;;;6.90;2.90;;;12.10;99.90;;;;;;4942510;28;20198;-82
2022/09/18 01:07:56;;;;;;;8.20;2.80;;;11.90;99.90;;;;;;4940361;28;20232;-82
2022/09/18 01:10:37;;;;;;;7.70;2.63;;;11.90;99.90;;;;;;4940305;28;20550;-82
2022/09/18 01:13:18;;;;;;;5.87;2.70;;;11.80;99.90;;;;;;4978787;28;20206;-82
2022/09/18 01:15:51;;;;;;;6.97;2.50;;;11.80;99.90;;;;;;4943806;28;20205;-82
2022/09/18 01:18:26;;;;;;;6.33;2.50;;;11.90;99.90;;;;;;4941618;29;20213;-82
2022/09/18 01:21:07;;;;;;;8.03;2.30;;;11.90;99.90;;;;;;4942554;28;20209;-82
2022/09/18 01:24:01;;;;;;;6.23;2.40;;;11.80;99.90;;;;;;4956466;29;20197;-84
2022/09/18 01:26:46;;;;;;;4.63;2.53;;;11.80;99.90;;;;;;4945372;29;20594;-84
2022/09/18 01:29:23;;;;;;;5.47;2.60;;;11.80;99.90;;;;;;4963415;28;20221;-84
2022/09/18 01:31:54;;;;;;;3.27;1.90;;;11.80;99.90;;;;;;4938514;29;20205;-84
2022/09/18 01:34:28;;;;;;;8.90;2.50;;;11.90;99.90;;;;;;4939513;29;20205;-84
2022/09/18 01:37:03;;;;;;;5.30;2.13;;;11.90;99.90;;;;;;4947481;29;20207;-85
2022/09/18 01:39:36;;;;;;;8.27;2.37;;;11.80;99.90;;;;;;4963856;29;20221;-84
2022/09/18 01:42:07;;;;;;;6.70;2.30;;;11.80;99.90;;;;;;4944246;29;20201;-81
2022/09/18 01:44:40;;;;;;;7.37;2.23;;;11.90;99.90;;;;;;4942965;29;20209;-82
2022/09/18 01:47:11;;;;;;;5.97;2.87;;;11.90;99.90;;;;;;4945863;29;20233;-82
2022/09/18 01:49:43;;;;;;;9.60;2.70;;;11.90;99.90;;;;;;4957612;29;20190;-81
2022/09/18 01:52:16;;;;;;;4.57;2.10;;;11.80;99.90;;;;;;4944127;28;20213;-82
2022/09/18 01:54:47;;;;;;;8.17;2.23;;;11.70;99.90;;;;;;4947971;28;20204;-82
2022/09/18 01:57:21;;;;;;;3.50;2.37;;;11.70;99.90;;;;;;4954602;28;20198;-82
2022/09/18 01:59:55;;;;;;;7.37;3.13;;;11.70;99.90;;;;;;4945944;28;20196;-81
2022/09/18 02:02:28;;;;;;;8.03;2.73;;;11.70;99.90;;;;;;4941169;29;20196;-82
2022/09/18 02:05:01;;;;;;;6.40;2.90;;;11.80;99.90;;;;;;4947006;28;20209;-83
2022/09/18 02:07:35;;;;;;;7.37;3.10;;;11.80;99.90;;;;;;4941734;29;20605;-82
2022/09/18 02:10:04;;;;;;;10.17;3.40;;;11.80;99.90;;;;;;4945987;28;20208;-81
2022/09/18 02:12:35;;;;;;;7.87;3.07;;;11.80;99.90;;;;;;4943194;28;20198;-82
2022/09/18 02:15:09;;;;;;;7.63;3.67;;;11.80;99.90;;;;;;4956883;28;20209;-82
2022/09/18 02:17:42;;;;;;;5.07;2.40;;;11.80;99.90;;;;;;4955594;29;20209;-82
2022/09/18 02:20:15;;;;;;;5.73;3.13;;;11.90;99.90;;;;;;4957793;28;20199;-82
2022/09/18 02:22:45;;;;;;;6.23;2.90;;;11.90;99.90;;;;;;4953621;28;20202;-82
2022/09/18 02:25:17;;;;;;;8.27;3.00;;;11.90;99.90;;;;;;4949993;28;20202;-83
2022/09/18 02:27:46;;;;;;;9.83;3.77;;;11.90;99.90;;;;;;4949704;29;20237;-82
2022/09/18 02:30:15;;;;;;;7.63;3.20;;;11.90;99.90;;;;;;4938469;29;20203;-82
2022/09/18 02:32:43;;;;;;;5.43;3.00;;;11.90;99.90;;;;;;4959877;29;20202;-82
2022/09/18 02:35:12;;;;;;;8.40;3.40;;;12.00;99.90;;;;;;4945709;28;20202;-82
2022/09/18 02:37:52;;;;;;;6.37;3.40;;;12.00;99.90;;;;;;4954354;28;20220;-81
2022/09/18 02:40:32;;;;;;;8.37;3.33;;;11.90;99.90;;;;;;4944087;28;20201;-82
2022/09/18 02:43:26;;;;;;;6.53;3.53;;;11.90;99.90;;;;;;4944147;29;20210;-83
2022/09/18 02:46:05;;;;;;;7.33;3.20;;;11.90;99.90;;;;;;4944792;28;20201;-82
2022/09/18 02:48:47;;;;;;;7.83;3.60;;;11.90;99.90;;;;;;4944091;28;20700;-82
2022/09/18 02:51:26;;;;;;;8.63;3.17;;;12.00;99.90;;;;;;4938463;29;20201;-83
2022/09/18 02:54:02;;;;;;;4.70;3.17;;;12.00;99.90;;;;;;4943807;28;20205;-82
2022/09/18 02:56:37;;;;;;;12.57;4.07;;;12.00;99.90;;;;;;4950677;29;20209;-82
2022/09/18 02:59:10;;;;;;;7.70;3.80;;;12.00;99.90;;;;;;4946630;28;20219;-82
2022/09/18 03:01:43;;;;;;;6.10;3.53;;;11.90;99.90;;;;;;4949626;29;20204;-81
2022/09/18 03:04:13;;;;;;;7.93;3.50;;;12.00;99.90;;;;;;4948133;28;20653;-82
2022/09/18 03:06:55;;;;;;;7.03;3.83;;;12.00;99.90;;;;;;4946049;29;20205;-81
2022/09/18 03:09:24;;;;;;;10.27;4.03;;;11.80;99.90;;;;;;4946861;29;20597;-82
2022/09/18 03:11:52;;;;;;;8.97;4.13;;;11.90;99.90;;;;;;4946675;29;20209;-82
2022/09/18 03:14:20;;;;;;;7.93;3.67;;;11.90;99.90;;;;;;4949402;29;20225;-81
2022/09/18 03:16:49;;;;;;;9.37;3.40;;;11.80;99.90;;;;;;4946338;29;20210;-81
2022/09/18 03:19:17;;;;;;;10.10;4.40;;;11.90;99.90;;;;;;4946497;29;20213;-82
2022/09/18 03:21:44;;;;;;;7.53;4.00;;;11.90;99.90;;;;;;4944033;29;20234;-81
2022/09/18 03:24:12;;;;;;;8.47;4.43;;;11.90;99.90;;;;;;4944668;29;20198;-83
2022/09/18 03:26:44;;;;;;;10.00;4.60;;;12.00;99.90;;;;;;4943164;29;20205;-82
2022/09/18 03:29:12;;;;;;;8.77;5.40;;;11.90;99.90;;;;;;4945187;29;20225;-82
2022/09/18 03:31:42;;;;;;;9.27;5.37;;;12.00;99.90;;;;;;4946093;29;20190;-81
2022/09/18 03:34:11;;;;;;;11.57;6.87;;;12.00;99.90;;;;;;4945638;29;20206;-82
2022/09/18 03:36:39;;;;;;;11.00;6.73;;;12.00;99.90;;;;;;4945517;29;20202;-82
2022/09/18 03:39:07;;;;;;;11.90;7.50;;;12.00;99.90;;;;;;4937916;29;20218;-82
2022/09/18 03:41:35;;;;;;;12.47;8.53;;;12.00;99.90;;;;;;4937967;28;20253;-83
2022/09/18 03:44:03;;;;;;;9.50;7.17;;;12.00;99.90;;;;;;4961844;29;20197;-82
2022/09/18 03:46:30;;;;;;;15.33;7.90;;;12.00;99.90;;;;;;4949270;28;20201;-83
2022/09/18 03:49:00;;;;;;;12.70;8.03;;;12.00;99.90;;;;;;4969936;28;20233;-82
2022/09/18 03:51:32;;;;;;;12.40;8.37;;;12.00;99.90;;;;;;4960528;28;20205;-82
2022/09/18 03:54:00;;;;;;;10.17;7.77;;;12.00;99.90;;;;;;4947060;29;20216;-81
2022/09/18 03:56:37;;;;;;;10.50;7.53;;;11.90;99.90;;;;;;4946319;29;20202;-81
2022/09/18 03:59:07;;;;;;;10.37;6.43;;;11.90;99.90;;;;;;4944848;29;20245;-82
2022/09/18 04:01:42;;;;;;;12.30;6.40;;;11.90;99.90;;;;;;4953134;28;20193;-78
2022/09/18 04:04:42;;;;;;;10.97;6.53;;;11.90;99.90;;;;;;4914531;28;20209;-78
2022/09/18 04:07:11;;;;;;;11.40;6.80;;;11.80;99.90;;;;;;4963253;28;20201;-78
2022/09/18 04:09:48;;;;;;;11.47;6.97;;;11.90;99.90;;;;;;4950429;28;20225;-78
2022/09/18 04:12:16;;;;;;;12.60;6.80;;;11.90;99.90;;;;;;4941401;29;20216;-79
2022/09/18 04:14:45;;;;;;;10.40;6.17;;;11.90;99.90;;;;;;4945596;28;20206;-78
2022/09/18 04:17:14;;;;;;;8.03;6.70;;;11.90;99.90;;;;;;4941522;29;20216;-78
2022/09/18 04:19:42;;;;;;;11.10;5.70;;;12.00;99.90;;;;;;4945805;29;20194;-78
2022/09/18 04:22:12;;;;;;;7.97;6.27;;;12.00;99.90;;;;;;4940238;29;20542;-78
2022/09/18 04:24:40;;;;;;;8.90;6.37;;;11.90;99.90;;;;;;4939683;28;20194;-78
2022/09/18 04:27:08;;;;;;;10.23;6.13;;;11.80;99.90;;;;;;4959812;28;20200;-78
2022/09/18 04:29:36;;;;;;;8.20;5.87;;;11.90;99.90;;;;;;4947001;28;20221;-78
2022/09/18 04:32:04;;;;;;;11.63;6.77;;;11.80;99.90;;;;;;4942812;29;20202;-78
2022/09/18 04:34:31;;;;;;;8.30;5.40;;;11.80;99.90;;;;;;4936532;29;20202;-78
2022/09/18 04:36:59;;;;;;;8.10;5.90;;;11.90;99.90;;;;;;4938349;28;20678;-78
2022/09/18 04:39:31;;;;;;;9.90;5.93;;;11.80;99.90;;;;;;4948613;28;20677;-78
2022/09/18 04:42:01;;;;;;;9.13;6.17;;;11.90;99.90;;;;;;4942106;29;20241;-78
2022/09/18 04:44:29;;;;;;;9.50;6.17;;;11.80;99.90;;;;;;4942135;29;20197;-78
2022/09/18 04:46:57;;;;;;;8.87;5.67;;;11.90;99.90;;;;;;4940119;29;20202;-78
2022/09/18 04:49:24;;;;;;;8.13;5.63;;;11.90;99.90;;;;;;4941161;29;20209;-78
2022/09/18 04:51:52;;;;;;;13.17;6.80;;;11.90;99.90;;;;;;4939336;29;20202;-78
2022/09/18 04:54:19;;;;;;;9.50;6.50;;;11.80;99.90;;;;;;4939571;29;20202;-78
2022/09/18 04:56:48;;;;;;;8.53;5.67;;;11.80;99.90;;;;;;4941242;29;20205;-78
2022/09/18 04:59:15;;;;;;;8.27;5.53;;;11.90;99.90;;;;;;4940675;29;20218;-78
2022/09/18 05:01:46;;;;;;;9.57;5.90;;;11.80;99.90;;;;;;4940510;29;20197;-78
2022/09/18 05:04:15;;;;;;;10.23;6.17;;;11.80;99.90;;;;;;4940303;29;20205;-78
2022/09/18 05:06:55;;;;;;;7.30;5.53;;;11.70;99.90;;;;;;4939240;29;20212;-78
2022/09/18 05:09:23;;;;;;;9.30;4.93;;;11.80;99.90;;;;;;4942129;28;20220;-78
2022/09/18 05:11:53;;;;;;;8.57;4.73;;;11.70;99.90;;;;;;4938705;29;20194;-78
2022/09/18 05:14:22;;;;;;;8.23;4.63;;;11.80;99.90;;;;;;4957914;28;20196;-78
2022/09/18 05:16:53;;;;;;;5.33;4.10;;;11.80;99.90;;;;;;4947246;29;20202;-78
2022/09/18 05:19:28;;;;;;;7.33;4.90;;;11.80;99.90;;;;;;4938880;28;20685;-78
2022/09/18 05:22:05;;;;;;;8.47;5.03;;;11.70;99.90;;;;;;4934735;23;20249;-77
2022/09/18 05:24:36;;;;;;;7.27;5.03;;;11.80;99.90;;;;;;4902357;29;20202;-78
2022/09/18 05:27:05;;;;;;;10.20;5.67;;;11.80;99.90;;;;;;4899721;29;20199;-78
2022/09/18 05:29:36;;;;;;;16.50;5.73;;;11.80;99.90;;;;;;4897216;29;20226;-78
2022/09/18 05:32:11;;;;;;;6.80;4.73;;;11.70;99.90;;;;;;4892718;29;20230;-78
2022/09/18 05:34:39;;;;;;;6.50;5.20;;;11.70;99.90;;;;;;4887811;29;20215;-80
2022/09/18 05:37:08;;;;;;;9.87;5.43;;;11.80;99.90;;;;;;4893895;29;20199;-80
2022/09/18 05:39:36;;;;;;;7.80;4.73;;;11.80;99.90;;;;;;4899640;29;20195;-79
2022/09/18 05:42:05;;;;;;;12.37;5.07;;;11.80;99.90;;;;;;4895257;29;20234;-81
2022/09/18 05:44:32;;;;;;;9.37;4.30;;;11.70;99.90;;;;;;4908430;29;20214;-81
2022/09/18 05:47:00;;;;;;;6.87;4.40;;;11.80;99.90;;;;;;4893067;29;20240;-80
2022/09/18 05:49:28;;;;;;;7.80;3.77;;;11.80;99.90;;;;;;4892848;29;20211;-80
2022/09/18 05:51:57;;;;;;;7.93;3.80;;;11.70;99.90;;;;;;4890657;29;20231;-80
2022/09/18 05:54:28;;;;;;;9.07;5.00;;;11.70;99.90;;;;;;4888112;29;20204;-81
2022/09/18 05:57:10;;;;;;;;;;;;;;;;;;;;;
2022/09/18 05:59:39;;;;;;;10.90;5.83;;;11.70;99.90;;;;;;4867678;29;20208;-81
2022/09/18 06:05:11;;;;;;;10.67;6.20;;;11.60;99.90;;;;;;4881517;29;20214;-81
2022/09/18 06:07:39;;;;;;;8.97;6.70;;;11.60;99.90;;;;;;4878287;29;20203;-81
2022/09/18 06:10:07;;;;;;;10.67;7.97;;;11.60;99.90;;;;;;4904946;29;20231;-80
2022/09/18 06:12:36;;;;;;;10.53;7.20;;;11.60;99.90;;;;;;4896826;29;20210;-81
2022/09/18 06:15:06;;;;;;;13.10;8.73;;;11.70;99.90;;;;;;4909500;29;20215;-81
2022/09/18 06:17:35;;;;;;;14.63;8.67;;;11.70;99.90;;;;;;4886254;29;20210;-81
2022/09/18 06:20:05;;;;;;;11.97;8.23;;;11.70;99.90;;;;;;4882035;29;20670;-81
2022/09/18 06:22:33;;;;;;;11.37;8.73;;;11.70;99.90;;;;;;4900579;29;20215;-81
2022/09/18 06:25:02;;;;;;;13.93;8.23;;;11.70;99.90;;;;;;4885013;29;20222;-81
2022/09/18 06:27:34;;;;;;;12.53;9.20;;;11.80;99.90;;;;;;4881007;29;20577;-81
2022/09/18 06:30:02;;;;;;;9.37;8.30;;;11.80;99.90;;;;;;4886401;29;20674;-79
2022/09/18 06:32:34;;;;;;;10.20;9.10;;;11.70;99.90;;;;;;4903820;29;20209;-79
2022/09/18 06:35:02;;;;;;;10.67;8.47;;;11.80;99.90;;;;;;4880607;29;20204;-79
2022/09/18 06:37:29;;;;;;;12.57;9.23;;;11.70;99.90;;;;;;4881590;29;20227;-79
2022/09/18 06:40:11;;;;;;;14.13;9.20;;;11.80;99.90;;;;;;4880275;29;20329;-81
2022/09/18 06:43:03;;;;;;;13.97;9.50;;;11.80;99.90;;;;;;4891712;29;20208;-79
2022/09/18 06:45:58;;;;;;;11.07;9.07;;;11.80;99.90;;;;;;4872628;29;20200;-81
2022/09/18 06:48:33;;;;;;;11.13;9.07;;;11.90;99.90;;;;;;4882156;29;20215;-81
2022/09/18 06:51:02;;;;;;;10.57;8.67;;;11.90;99.90;;;;;;4895429;29;20222;-81
2022/09/18 06:53:36;;;;;;;10.87;8.90;;;12.00;99.90;;;;;;4895817;29;20211;-81
2022/09/18 06:56:04;;;;;;;10.73;9.07;;;11.90;99.90;;;;;;4879444;29;20204;-81
2022/09/18 06:58:39;;;;;;;15.10;8.87;;;12.00;99.90;;;;;;4877159;29;20200;-81
2022/09/18 07:01:07;;;;;;;10.17;7.40;;;12.00;99.90;;;;;;4870306;29;20227;-79
2022/09/18 07:03:42;;;;;;;10.93;8.13;;;11.90;99.90;;;;;;4873688;29;20226;-78
2022/09/18 07:06:19;;;;;;;9.43;7.77;;;11.80;99.90;;;;;;4867932;29;20208;-78
2022/09/18 07:08:49;;;;;;;11.37;7.03;;;12.00;99.90;;;;;;4878550;29;20204;-79
2022/09/18 07:11:28;;;;;;;11.53;7.20;;;12.00;99.90;;;;;;4886948;29;20223;-79
2022/09/18 07:14:00;;;;;;;7.83;5.80;;;12.10;99.90;;;;;;4878418;29;20200;-79
2022/09/18 07:16:28;;;;;;;8.30;6.40;;;12.00;99.90;;;;;;4872520;29;20226;-79
2022/09/18 07:18:58;;;;;;;9.00;5.93;;;12.00;99.90;;;;;;4885105;29;20211;-79
2022/09/18 07:21:25;;;;;;;9.93;5.60;;;12.00;99.90;;;;;;4879564;29;20734;-81
2022/09/18 07:23:53;;;;;;;8.77;4.57;;;12.10;99.90;;;;;;4893610;29;20200;-79
2022/09/18 07:26:21;;;;;;;8.33;5.23;;;12.00;99.90;;;;;;4878794;29;20204;-79
2022/09/18 07:28:51;;;;;;;7.27;5.17;;;12.00;99.90;;;;;;4874703;29;20214;-79
2022/09/18 07:31:24;;;;;;;8.00;4.83;;;12.10;99.90;;;;;;4882866;29;20238;-81
2022/09/18 07:33:54;;;;;;;8.20;5.23;;;12.20;99.90;;;;;;4885487;29;20203;-79
2022/09/18 07:36:27;;;;;;;7.50;5.83;;;12.20;99.90;;;;;;4892850;29;20211;-79
2022/09/18 07:38:55;;;;;;;9.73;6.57;;;12.20;99.90;;;;;;4867962;29;20212;-79
2022/09/18 07:41:26;;;;;;;11.10;7.23;;;12.10;99.90;;;;;;4881933;29;20223;-79
2022/09/18 07:43:53;;;;;;;9.93;7.53;;;12.10;99.90;;;;;;4888293;29;20208;-78
2022/09/18 07:46:21;;;;;;;10.33;7.37;;;12.10;99.90;;;;;;4874283;29;20218;-79
2022/09/18 07:48:52;;;;;;;11.20;7.77;;;12.10;99.90;;;;;;4891027;29;20204;-80
2022/09/18 07:51:24;;;;;;;8.63;7.37;;;12.10;99.90;;;;;;4873603;29;20228;-80
2022/09/18 07:53:55;;;;;;;9.43;7.43;;;12.20;99.90;;;;;;4872097;29;20688;-81
2022/09/18 07:56:54;;;;;;;9.33;7.03;;;12.10;99.90;;;;;;4874842;29;20213;-78
2022/09/18 07:59:25;;;;;;;9.17;6.37;;;12.10;99.90;;;;;;4875321;29;20671;-78
2022/09/18 08:01:58;;;;;;;7.07;5.57;;;12.20;99.90;;;;;;4877439;29;20227;-78
2022/09/18 08:04:27;;;;;;;9.87;5.50;;;12.20;99.90;;;;;;4884684;29;20660;-79
2022/09/18 08:07:09;;;;;;;6.40;4.93;;;12.30;99.90;;;;;;4901583;29;20691;-78
2022/09/18 08:10:02;;;;;;;5.20;4.37;;;12.30;99.90;;;;;;4886452;29;20208;-79
2022/09/18 08:12:52;;;;;;;6.00;3.10;;;12.30;99.90;;;;;;4902448;29;20203;-78
2022/09/18 08:15:29;;;;;;;4.90;3.30;;;12.20;99.90;;;;;;4881165;29;20204;-78
2022/09/18 08:18:25;;;;;;;4.90;3.07;;;12.10;99.90;;;;;;4869749;29;20214;-78
2022/09/18 08:21:12;;;;;;;4.80;2.80;;;12.10;99.90;;;;;;4881594;29;20228;-79
2022/09/18 08:23:44;;;;;;;5.63;2.53;;;12.10;99.90;;;;;;4885527;29;20709;-79
2022/09/18 08:26:13;;;;;;;4.93;2.93;;;12.10;99.90;;;;;;4896983;29;20199;-79
2022/09/18 08:28:40;;;;;;;5.80;2.83;;;12.10;99.90;;;;;;4900990;29;20226;-79
2022/09/18 08:31:07;;;;;;;5.73;2.80;;;12.20;99.90;;;;;;4895087;29;20235;-79
2022/09/18 08:33:35;;;;;;;4.30;2.47;;;12.20;99.90;;;;;;4877934;29;20200;-79
2022/09/18 08:36:03;;;;;;;5.43;2.40;;;12.30;99.90;;;;;;4882530;29;20215;-79
2022/09/18 08:38:34;;;;;;;5.27;2.33;;;12.30;99.90;;;;;;4886414;29;20203;-79
2022/09/18 08:41:47;;;;;;;5.83;2.70;;;12.30;99.90;;;;;;4864240;29;20227;-78
2022/09/18 08:44:22;;;;;;;4.67;2.33;;;12.10;99.90;;;;;;4881739;29;20206;-79
2022/09/18 08:46:57;;;;;;;5.27;2.60;;;12.20;99.90;;;;;;4884886;29;20203;-77
2022/09/18 08:49:34;;;;;;;2.93;2.13;;;12.10;99.90;;;;;;4877807;29;20698;-78
2022/09/18 08:52:13;;;;;;;3.60;2.10;;;12.10;99.90;;;;;;4883005;29;20227;-78
2022/09/18 08:54:48;;;;;;;5.93;2.87;;;12.20;99.90;;;;;;4889473;29;20207;-77
2022/09/18 08:57:42;;;;;;;4.73;2.47;;;12.40;99.90;;;;;;4852118;29;20196;-77
2022/09/18 09:00:22;;;;;;;19.03;6.57;;;12.40;99.90;;;;;;4885035;29;20777;-80
2022/09/18 09:03:23;;;;;;;16.53;5.33;;;13.10;99.90;;;;;;4875797;29;20206;-80
2022/09/18 09:05:55;;;;;;;12.70;4.80;;;13.40;99.90;;;;;;4881941;29;20203;-80
2022/09/18 09:08:43;;;;;;;6.07;3.20;;;13.80;99.90;;;;;;4884518;29;20215;-80
2022/09/18 09:11:22;;;;;;;3.95;2.70;;;13.90;99.90;;;;;;4880670;29;20223;-80
2022/09/18 09:14:27;;;;;;;4.40;2.72;;;13.80;99.90;;;;;;4893554;29;20206;-81
2022/09/18 09:17:04;;;;;;;3.95;2.60;;;13.40;99.90;;;;;;4874767;29;20218;-80
2022/09/18 09:19:41;;;;;;;5.78;3.40;;;13.00;99.90;;;;;;4892757;29;20575;-80
2022/09/18 09:22:17;;;;;;;6.10;3.65;;;12.70;99.90;;;;;;4897784;29;20305;-79
2022/09/18 09:24:58;;;;;;;5.63;3.90;;;12.70;99.90;;;;;;4873014;29;20214;-80
2022/09/18 09:27:56;;;;;;;5.53;3.80;;;12.60;99.90;;;;;;4879094;29;20212;-79
2022/09/18 09:30:53;;;;;;;7.75;4.50;;;12.60;99.90;;;;;;4847554;29;20235;-79
2022/09/18 09:33:52;;;;;;;4.13;3.73;;;12.60;99.90;;;;;;4900485;29;20210;-79
2022/09/18 09:36:47;;;;;;;4.43;3.63;;;12.50;99.90;;;;;;4890824;29;20203;-80
2022/09/18 09:39:23;;;;;;;3.90;2.83;;;12.60;99.90;;;;;;4883367;29;20207;-80
2022/09/18 09:41:57;;;;;;;3.40;2.30;;;12.40;99.90;;;;;;4895519;29;20225;-79
2022/09/18 09:44:35;;;;;;;3.57;2.70;;;12.40;99.90;;;;;;4897609;29;20579;-79
2022/09/18 09:47:21;;;;;;;3.53;2.33;;;12.40;99.90;;;;;;4893015;29;20805;-80
2022/09/18 09:50:02;;;;;;;5.10;2.40;;;12.40;99.90;;;;;;4888989;29;20204;-79
2022/09/18 09:52:33;;;;;;;2.87;2.13;;;12.40;99.90;;;;;;4897951;29;20223;-79
2022/09/18 09:55:21;;;;;;;2.60;2.10;;;12.20;99.90;;;;;;4887219;29;20212;-80
2022/09/18 09:58:03;;;;;;;1.70;1.53;;;12.30;99.90;;;;;;4886462;29;20234;-80
2022/09/18 10:00:40;;;;;;;4.53;1.97;;;12.30;99.90;;;;;;4878420;29;20235;-80
2022/09/18 10:03:33;;;;;;;2.60;2.17;;;12.30;99.90;;;;;;4885296;29;20586;-80
2022/09/18 10:06:12;;;;;;;3.93;1.70;;;12.40;99.90;;;;;;4888698;29;20204;-80
2022/09/18 10:08:45;;;;;;;2.03;1.50;;;12.40;99.90;;;;;;4876983;29;20213;-80
2022/09/18 10:11:15;;;;;;;2.90;1.80;;;12.40;99.90;;;;;;4912463;29;20211;-80
2022/09/18 10:13:52;;;;;;;1.73;1.50;;;12.40;99.90;;;;;;4880694;29;20658;-80
2022/09/18 10:16:23;;;;;;;2.40;1.57;;;12.40;99.90;;;;;;4893446;29;20218;-80
2022/09/18 10:18:53;;;;;;;2.80;1.47;;;12.30;99.90;;;;;;4875949;29;20207;-80
2022/09/18 10:21:25;;;;;;;3.70;1.20;;;12.40;99.90;;;;;;4895452;29;20227;-80
2022/09/18 10:23:59;;;;;;;2.13;1.10;;;12.30;99.90;;;;;;4886855;29;20742;-80
2022/09/18 10:26:31;;;;;;;2.70;1.00;;;12.40;99.90;;;;;;4885615;29;20216;-80
2022/09/18 10:29:01;;;;;;;3.63;1.20;;;12.30;99.90;;;;;;4880406;29;20187;-80
2022/09/18 10:31:47;;;;;;;3.77;1.33;;;12.30;99.90;;;;;;4896025;29;20225;-79
2022/09/18 10:37:17;;;;;;;1.90;1.10;;;12.40;99.90;;;;;;5128720;27;20520;-80
2022/09/18 10:39:52;;;;;;;2.30;1.00;;;12.50;99.90;;;;;;5131456;27;20207;-79
2022/09/18 10:42:23;;;;;;;2.13;1.13;;;12.60;99.90;;;;;;5112107;28;20701;-80
2022/09/18 10:44:57;;;;;;;3.33;1.23;;;12.70;99.90;;;;;;5108802;28;20195;-80
2022/09/18 10:48:06;;;;;;;2.50;1.20;;;12.70;99.90;;;;;;5104315;28;20183;-80
2022/09/18 10:50:36;;;;;;;1.93;1.50;;;12.60;99.90;;;;;;5107017;28;20211;-80
2022/09/18 10:53:27;;;;;;;2.93;1.60;;;12.70;99.90;;;;;;5110770;28;20193;-80
2022/09/18 10:55:56;;;;;;;1.63;1.10;;;12.80;99.90;;;;;;5110862;28;20208;-80
2022/09/18 10:58:30;;;;;;;1.53;1.40;;;12.70;99.90;;;;;;5105042;28;20197;-80
2022/09/18 11:01:01;;;;;;;3.73;1.30;;;12.70;99.90;;;;;;5106922;28;20228;-80
2022/09/18 11:03:59;;;;;;;1.73;1.30;;;12.80;99.90;;;;;;5105059;28;20207;-80
2022/09/18 11:06:32;;;;;;;1.60;1.40;;;12.70;99.90;;;;;;5091229;28;20193;-80
2022/09/18 11:09:10;;;;;;;2.23;1.23;;;12.70;99.90;;;;;;5110311;28;20196;-80
2022/09/18 11:11:49;;;;;;;1.50;1.40;;;12.70;99.90;;;;;;5110065;28;20594;-80
2022/09/18 11:14:24;;;;;;;2.20;1.40;;;12.80;99.90;;;;;;5103977;28;20199;-80
2022/09/18 11:17:05;;;;;;;1.17;1.00;;;12.70;99.90;;;;;;5111602;28;20204;-80
2022/09/18 11:19:40;;;;;;;2.23;1.10;;;12.80;99.90;;;;;;5111374;28;20680;-80
2022/09/18 11:22:40;;;;;;;2.13;1.30;;;12.80;99.90;;;;;;5112240;28;20584;-80
2022/09/18 11:25:22;;;;;;;5.60;1.00;;;12.90;99.90;;;;;;5098506;22;20218;-81
2022/09/18 11:27:54;;;;;;;1.90;0.93;;;12.80;99.90;;;;;;5072493;28;20194;-81
2022/09/18 11:30:25;;;;;;;2.92;0.98;;;12.80;99.90;;;;;;5066908;28;20201;-81
2022/09/18 11:32:59;;;;;;;2.47;1.13;;;12.90;99.90;;;;;;5073819;28;20663;-81
2022/09/18 11:35:29;;;;;;;3.00;0.80;;;12.80;99.90;;;;;;5063313;28;20562;-81
2022/09/18 11:37:59;;;;;;;2.17;1.20;;;12.70;99.90;;;;;;5069507;28;20217;-81
2022/09/18 11:40:33;;;;;;;1.30;1.00;;;12.80;99.90;;;;;;5070941;28;20205;-81
2022/09/18 11:43:04;;;;;;;2.17;1.10;;;12.70;99.90;;;;;;5072118;28;20198;-81
2022/09/18 11:45:45;;;;;;;2.47;1.03;;;12.70;99.90;;;;;;5068290;28;20182;-81
2022/09/18 11:48:24;;;;;;;2.37;1.10;;;12.80;99.90;;;;;;5058507;28;20218;-81
2022/09/18 11:50:54;;;;;;;1.73;1.05;;;12.80;99.90;;;;;;5057983;28;20194;-82
2022/09/18 11:53:26;;;;;;;2.97;1.10;;;12.90;99.90;;;;;;5059689;28;20222;-81
2022/09/18 11:55:59;;;;;;;2.87;1.40;;;13.00;99.90;;;;;;5054756;28;20214;-82
2022/09/18 11:58:32;;;;;;;2.05;1.13;;;12.90;99.90;;;;;;5049036;28;20195;-81
2022/09/18 12:01:13;;;;;;;2.70;1.35;;;12.90;99.90;;;;;;5055448;28;20202;-81
2022/09/18 12:03:48;;;;;;;1.73;1.17;;;13.10;99.90;;;;;;5058347;28;20229;-81
2022/09/18 12:06:27;;;;;;;3.60;1.58;;;13.10;99.90;;;;;;5057422;28;20563;-81
2022/09/18 12:09:02;;;;;;;3.17;1.40;;;13.10;99.90;;;;;;5059510;28;20201;-81
2022/09/18 12:11:37;;;;;;;2.20;1.58;;;13.10;99.90;;;;;;5057466;28;20217;-82
2022/09/18 12:14:16;;;;;;;4.10;1.80;;;13.00;99.90;;;;;;5054094;28;20221;-82
2022/09/18 12:16:57;;;;;;;3.93;2.20;;;12.90;99.90;;;;;;5052777;28;20206;-82
2022/09/18 12:19:33;;;;;;;3.40;2.00;;;13.00;99.90;;;;;;5058769;28;20190;-82
2022/09/18 12:22:10;;;;;;;3.43;1.97;;;13.00;99.90;;;;;;5060475;28;20206;-82
2022/09/18 12:24:37;;;;;;;2.07;1.73;;;13.00;99.90;;;;;;5057544;28;20595;-82
2022/09/18 12:27:21;;;;;;;2.65;1.80;;;12.90;99.90;;;;;;5056895;28;20213;-82
2022/09/18 12:30:09;;;;;;;4.70;2.40;;;12.90;99.90;;;;;;5054946;28;20202;-81
2022/09/18 12:33:02;;;;;;;3.63;1.83;;;13.00;99.90;;;;;;5062083;28;20206;-80
2022/09/18 12:35:41;;;;;;;3.53;2.47;;;13.00;99.90;;;;;;5053936;28;20186;-80
2022/09/18 12:38:17;;;;;;;2.43;1.80;;;13.00;99.90;;;;;;5047835;28;20205;-80
2022/09/18 12:41:00;;;;;;;4.83;1.87;;;12.90;99.90;;;;;;5053829;28;20544;-80
2022/09/18 12:44:03;;;;;;;2.53;1.30;;;12.90;99.90;;;;;;5049959;28;20225;-80
2022/09/18 12:46:44;;;;;;;2.13;1.30;;;12.90;99.90;;;;;;5014886;28;20187;-82
2022/09/18 12:49:27;;;;;;;2.87;1.37;;;12.80;99.90;;;;;;5052617;28;20202;-83
2022/09/18 12:52:07;;;;;;;3.60;1.47;;;12.90;99.90;;;;;;5057266;28;20191;-83
2022/09/18 12:55:07;;;;;;;3.70;1.20;;;12.90;99.90;;;;;;5055506;28;20221;-80
2022/09/18 12:57:48;;;;;;;2.90;1.23;;;12.80;99.90;;;;;;5036940;28;20206;-80
2022/09/18 13:00:18;;;;;;;2.83;1.40;;;12.80;99.90;;;;;;5047922;28;20206;-78
2022/09/18 13:02:53;;;;;;;2.97;1.40;;;13.30;99.90;;;;;;5050410;28;20199;-82
2022/09/18 13:05:26;;;;;;;5.13;1.20;;;13.30;99.90;;;;;;5052673;28;20213;-83
2022/09/18 13:08:02;;;;;;;3.13;1.00;;;13.20;99.90;;;;;;5056018;28;20194;-83
2022/09/18 13:10:35;;;;;;;1.88;1.10;;;12.90;99.90;;;;;;5049152;28;20198;-81
2022/09/18 13:13:10;;;;;;;3.45;1.10;;;12.80;99.90;;;;;;5051597;28;20202;-80
2022/09/18 13:15:42;;;;;;;3.33;1.00;;;12.80;99.90;;;;;;5056206;28;20198;-80
2022/09/18 13:18:29;;;;;;;4.07;1.30;;;12.70;99.90;;;;;;5052957;28;20210;-80
2022/09/18 13:20:58;;;;;;;3.03;0.90;;;12.60;99.90;;;;;;5045760;28;20202;-80
2022/09/18 13:23:29;;;;;;;3.90;1.00;;;12.60;99.90;;;;;;5041946;28;20222;-80
2022/09/18 13:26:13;;;;;;;1.20;0.40;;;12.50;99.90;;;;;;5046056;28;20257;-79
2022/09/18 13:28:52;;;;;;;4.23;0.80;;;12.10;99.90;;;;;;5054150;28;20197;-80